Etusivu
METAR-TAF:

METAR-TAF

Lentoasemat :

Agen, Ranska

Leveyspiiri: 44-11N, Pituuspiiri: 000-36E, korkeus merenpinnasta: 61 m

Tämänhetkinen sää

Tämä raportti tehtiin 38 minuuttia sitten, kello 08.00 UTC
Tuuli 5 kn pohjoisen/luoteesta, vaihdellen lännen/luoteen ja idän/koillisen välillä
Lämpötila 9°C
Kosteus 61%
Ilmanpaine 1022 hPa
Näkyvyys 10 km tai enemmän
ei pilviä alle 1500 m:ssä eikä cumulonimbus-pilviä

METAR: LFBA 210800Z AUTO 34005KT 290V060 CAVOK 09/02 Q1022 NOSIG

Aika: 10:38 (08:38 UTC)

Sääennuste

Tämä raportti tehtiin 3 tuntia ja 38 minuuttia sitten, kello 05.00 UTC
Ennuste voimassa 21. päivästä klo 06 UTC - 21. päivään klo 15 UTC
Tuuli 3 kn eri suunnista
Näkyvyys 10 km tai enemmän
ei pilviä alle 1500 m:ssä eikä cumulonimbus-pilviä
Tulossa
21. päivästä klo 09 UTC - 21. päivään klo 11 UTC
Tuuli 10 kn pohjoisen/luoteesta

TAF: LFBA 210500Z 2106/2115 VRB03KT CAVOK BECMG 2109/2111 34010KT

Säähavainnot ja -ennusteet yli 4000 lentoasemalta (METAR- ja TAF-raportit).

Käytössä olevat sääasemat on merkitty karttaan keltaisilla ja punaisilla pisteillä.

Aseta hiiri pisteen päälle nähdäksesi sääaseman nimen.

Klikkaa sitten nähdäksesi säähavainnot ja -ennusteet.

Kartan vaihtaminen: klikkaa mustalla rastilla varustettuja vihreitä pisteitä, niin voit zoomata sisään; viivalla varustettua vihreää pistettä, niin voit zoomata ulos tai vihreitä nuolia, niin pääset viereisille kartoille.


METAR-TAF: